TUI7LG EDDM-EDDM
Flight info
| Callsign | TUI7LG |
|---|---|
| Flight time | 0h 9m |
| Altitude | 15000 |
| Route | TURBU7S/26L TURBU Y107 RTT RTT1B |
| Aircraft | B738/M-SDE2E3FGHIRWXY/LB1 |
Departure
| Time | 2026-05-06 19:46 |
|---|---|
| Airport | Munich Airport (EDDM) |
Arrival
| Time | 2026-05-06 19:56 |
|---|---|
| Airport | Munich Airport (EDDM) |
| Time | Latitude | Longitude | Altitude | Speed | Heading |
|---|---|---|---|---|---|
| 2026-05-06 19:38 | 47.37810 | 11.77198 | 11062 ft | 320 kts | 50° |
| 2026-05-06 19:39 | 47.39496 | 11.79284 | 11435 ft | 320 kts | 26° |
| 2026-05-06 19:39 | 47.41587 | 11.80278 | 11816 ft | 317 kts | 6° |
| 2026-05-06 19:39 | 47.43784 | 11.80656 | 12203 ft | 318 kts | 3° |
| 2026-05-06 19:39 | 47.45972 | 11.81028 | 12576 ft | 320 kts | 4° |
| 2026-05-06 19:40 | 47.48179 | 11.81424 | 12949 ft | 321 kts | 4° |
| 2026-05-06 19:40 | 47.50413 | 11.81808 | 13325 ft | 322 kts | 1° |
| 2026-05-06 19:40 | 47.52650 | 11.82029 | 13698 ft | 324 kts | 359° |
| 2026-05-06 19:40 | 47.54888 | 11.82236 | 13836 ft | 328 kts | 360° |
| 2026-05-06 19:41 | 47.57172 | 11.82458 | 13828 ft | 326 kts | 360° |
| 2026-05-06 19:41 | 47.59419 | 11.82677 | 13834 ft | 324 kts | 359° |
| 2026-05-06 19:41 | 47.61649 | 11.82896 | 13838 ft | 324 kts | 360° |
| 2026-05-06 19:41 | 47.63895 | 11.83118 | 13841 ft | 324 kts | 360° |
| 2026-05-06 19:42 | 47.66137 | 11.83338 | 13843 ft | 324 kts | 360° |
| 2026-05-06 19:42 | 47.68377 | 11.83558 | 13846 ft | 324 kts | 360° |
| 2026-05-06 19:42 | 47.70633 | 11.83781 | 13851 ft | 324 kts | 360° |
| 2026-05-06 19:42 | 47.72852 | 11.84245 | 13847 ft | 329 kts | 14° |
| 2026-05-06 19:43 | 47.74965 | 11.85658 | 13889 ft | 345 kts | 26° |
| 2026-05-06 19:43 | 47.77151 | 11.87397 | 13882 ft | 365 kts | 25° |
| 2026-05-06 19:43 | 47.79440 | 11.89078 | 13872 ft | 370 kts | 23° |
| 2026-05-06 19:43 | 47.81749 | 11.90739 | 13874 ft | 367 kts | 23° |
| 2026-05-06 19:44 | 47.84037 | 11.92370 | 13876 ft | 366 kts | 23° |
| 2026-05-06 19:44 | 47.86306 | 11.93971 | 13881 ft | 366 kts | 22° |
| 2026-05-06 19:44 | 47.88615 | 11.95591 | 13882 ft | 366 kts | 22° |
| 2026-05-06 19:44 | 47.90916 | 11.97201 | 13882 ft | 366 kts | 22° |
| 2026-05-06 19:45 | 47.93198 | 11.98798 | 13809 ft | 368 kts | 22° |
| 2026-05-06 19:45 | 47.95500 | 12.00407 | 13522 ft | 367 kts | 22° |
| 2026-05-06 19:45 | 47.97773 | 12.01999 | 13246 ft | 363 kts | 23° |
| 2026-05-06 19:45 | 48.00017 | 12.03571 | 12974 ft | 360 kts | 23° |
| 2026-05-06 19:46 | 48.02269 | 12.05150 | 12699 ft | 358 kts | 23° |
| 2026-05-06 19:46 | 48.04487 | 12.06706 | 12412 ft | 358 kts | 23° |
| 2026-05-06 19:46 | 48.06704 | 12.08263 | 11936 ft | 355 kts | 23° |
| 2026-05-06 19:46 | 48.08899 | 12.09810 | 11436 ft | 340 kts | 23° |
| 2026-05-06 19:47 | 48.10965 | 12.11267 | 10895 ft | 330 kts | 23° |
| 2026-05-06 19:47 | 48.12987 | 12.12690 | 10430 ft | 317 kts | 23° |
| 2026-05-06 19:47 | 48.14943 | 12.14068 | 9918 ft | 309 kts | 22° |
| 2026-05-06 19:47 | 48.16884 | 12.15434 | 9388 ft | 309 kts | 22° |
| 2026-05-06 19:48 | 48.18765 | 12.16761 | 8934 ft | 300 kts | 22° |
| 2026-05-06 19:48 | 48.20658 | 12.18098 | 8243 ft | 300 kts | 22° |
| 2026-05-06 19:48 | 48.22524 | 12.19416 | 7685 ft | 295 kts | 22° |
| 2026-05-06 19:48 | 48.24349 | 12.20671 | 7065 ft | 292 kts | 17° |
| 2026-05-06 19:49 | 48.26305 | 12.21215 | 6441 ft | 282 kts | 356° |
| 2026-05-06 19:49 | 48.28224 | 12.21102 | 5912 ft | 276 kts | 353° |
| 2026-05-06 19:49 | 48.30121 | 12.20909 | 5260 ft | 274 kts | 345° |
| 2026-05-06 19:49 | 48.31798 | 12.19769 | 4624 ft | 262 kts | 313° |
| 2026-05-06 19:50 | 48.32682 | 12.17522 | 4307 ft | 246 kts | 282° |
| 2026-05-06 19:50 | 48.33085 | 12.15024 | 4092 ft | 248 kts | 286° |
| 2026-05-06 19:50 | 48.33778 | 12.12751 | 3973 ft | 230 kts | 298° |
| 2026-05-06 19:50 | 48.34652 | 12.10854 | 3982 ft | 216 kts | 304° |
| 2026-05-06 19:51 | 48.35591 | 12.09181 | 3987 ft | 202 kts | 307° |
| 2026-05-06 19:51 | 48.36282 | 12.07412 | 3988 ft | 195 kts | 277° |
| 2026-05-06 19:51 | 48.36280 | 12.05398 | 4016 ft | 195 kts | 264° |
| 2026-05-06 19:51 | 48.36188 | 12.03429 | 3998 ft | 180 kts | 263° |
| 2026-05-06 19:52 | 48.36062 | 12.01611 | 4001 ft | 169 kts | 263° |
| 2026-05-06 19:52 | 48.35934 | 11.99839 | 3986 ft | 175 kts | 263° |
| 2026-05-06 19:52 | 48.35798 | 11.97993 | 3773 ft | 173 kts | 263° |
| 2026-05-06 19:52 | 48.35667 | 11.96250 | 3543 ft | 163 kts | 263° |
| 2026-05-06 19:53 | 48.35543 | 11.94624 | 3341 ft | 151 kts | 263° |
| 2026-05-06 19:53 | 48.35448 | 11.93123 | 3138 ft | 137 kts | 264° |
| 2026-05-06 19:53 | 48.35376 | 11.91761 | 3012 ft | 132 kts | 263° |
| 2026-05-06 19:53 | 48.35250 | 11.90301 | 2833 ft | 145 kts | 262° |
| 2026-05-06 19:54 | 48.35123 | 11.88783 | 2630 ft | 147 kts | 263° |
| 2026-05-06 19:54 | 48.35015 | 11.87291 | 2394 ft | 139 kts | 263° |
| 2026-05-06 19:54 | 48.34909 | 11.85904 | 2214 ft | 135 kts | 263° |
| 2026-05-06 19:54 | 48.34811 | 11.84528 | 2067 ft | 139 kts | 264° |
| 2026-05-06 19:55 | 48.34682 | 11.83080 | 1866 ft | 142 kts | 262° |
| 2026-05-06 19:55 | 48.34569 | 11.81611 | 1661 ft | 140 kts | 263° |
| 2026-05-06 19:55 | 48.34461 | 11.80192 | 1487 ft | 137 kts | 263° |
| 2026-05-06 19:55 | 48.34366 | 11.78981 | 1475 ft | 85 kts | 264° |
| 2026-05-06 19:56 | 48.34311 | 11.78242 | 1476 ft | 59 kts | 265° |
| 2026-05-06 19:56 | 48.34374 | 11.77786 | 1475 ft | 39 kts | 289° |
| 2026-05-06 19:56 | 48.34437 | 11.77576 | 1473 ft | 9 kts | 295° |
| 2026-05-06 19:56 | 48.34460 | 11.77505 | 1473 ft | 7 kts | 299° |
| 2026-05-06 19:57 | 48.34495 | 11.77453 | 1472 ft | 6 kts | 335° |
| 2026-05-06 19:57 | 48.34539 | 11.77437 | 1473 ft | 6 kts | 352° |
| 2026-05-06 19:57 | 48.34585 | 11.77429 | 1473 ft | 5 kts | 354° |
| 2026-05-06 19:57 | 48.34615 | 11.77435 | 1473 ft | 4 kts | 25° |
| 2026-05-06 19:58 | 48.34634 | 11.77506 | 1472 ft | 10 kts | 82° |
| 2026-05-06 19:58 | 48.34644 | 11.77638 | 1473 ft | 15 kts | 84° |
| 2026-05-06 19:58 | 48.34656 | 11.77799 | 1470 ft | 14 kts | 84° |
| 2026-05-06 19:58 | 48.34702 | 11.77895 | 1469 ft | 11 kts | 17° |
| 2026-05-06 19:59 | 48.34769 | 11.77885 | 1469 ft | 9 kts | 350° |
| 2026-05-06 19:59 | 48.34832 | 11.77872 | 1469 ft | 8 kts | 354° |
| 2026-05-06 19:59 | 48.34893 | 11.77863 | 1469 ft | 8 kts | 354° |
| 2026-05-06 19:59 | 48.34951 | 11.77853 | 1469 ft | 8 kts | 352° |
| 2026-05-06 20:00 | 48.35010 | 11.77842 | 1469 ft | 8 kts | 353° |
| 2026-05-06 20:00 | 48.35079 | 11.77829 | 1469 ft | 12 kts | 353° |
| 2026-05-06 20:00 | 48.35161 | 11.77831 | 1469 ft | 11 kts | 34° |
| 2026-05-06 20:00 | 48.35187 | 11.77937 | 1469 ft | 11 kts | 84° |
| 2026-05-06 20:01 | 48.35195 | 11.78046 | 1469 ft | 9 kts | 83° |
| 2026-05-06 20:01 | 48.35205 | 11.78140 | 1469 ft | 8 kts | 71° |
| 2026-05-06 20:01 | 48.35223 | 11.78208 | 1471 ft | 4 kts | 73° |
| 2026-05-06 20:01 | 48.35228 | 11.78256 | 1473 ft | 4 kts | 83° |
| 2026-05-06 20:02 | 48.35232 | 11.78309 | 1475 ft | 5 kts | 84° |
| 2026-05-06 20:02 | 48.35234 | 11.78331 | 1476 ft | 0 kts | 84° |